Time;durP1;ratioP1;P1;durP2;ratioP2;P2;SDS_P1;SDS_P2;PMS_P1;PMS_P2;Temp;Humidity;BMP_temperature;BMP_pressure;BME280_temperature;BME280_humidity;BME280_pressure;Samples;Min_cycle;Max_cycle;Signal;HPM_P1;HPM_P2
2022/01/28 00:01:02;;;;;;;41.00;22.60;;;;;;;2.13;86.02;99241.16;5000080;28;20034;-60
2022/01/28 00:03:28;;;;;;;36.80;22.02;;;;;;;2.30;85.60;99262.53;4992083;28;20801;-60
2022/01/28 00:05:53;;;;;;;34.78;22.70;;;;;;;2.16;85.13;99238.47;4987340;28;20038;-61
2022/01/28 00:08:19;;;;;;;40.33;23.85;;;;;;;2.11;84.70;99234.34;4993662;28;20797;-60
2022/01/28 00:10:44;;;;;;;43.58;26.48;;;;;;;2.13;84.46;99241.16;5005563;28;20457;-60
2022/01/28 00:18:48;;;;;;;40.75;23.58;;;;;;;2.00;84.33;99248.63;4996703;28;20038;-61
2022/01/28 00:40:24;;;;;;;39.47;23.02;;;;;;;1.72;84.04;99225.16;5004677;28;20078;-61
2022/01/28 00:42:49;;;;;;;36.88;21.52;;;;;;;1.65;84.44;99236.59;5005889;28;20497;-60
2022/01/28 00:45:15;;;;;;;36.90;23.33;;;;;;;1.72;84.37;99219.19;5005602;28;20087;-60
2022/01/28 00:47:40;;;;;;;40.50;23.65;;;;;;;1.66;84.44;99237.44;4998398;28;20354;-60
2022/01/28 00:50:06;;;;;;;39.25;22.10;;;;;;;1.60;84.42;99241.13;4999295;28;20493;-60
2022/01/28 00:52:31;;;;;;;37.03;23.00;;;;;;;1.58;84.73;99235.22;4998455;28;20030;-60
2022/01/28 00:54:57;;;;;;;39.10;23.00;;;;;;;1.36;84.17;99191.84;5005975;28;20425;-60
2022/01/28 00:57:22;;;;;;;40.67;24.38;;;;;;;1.48;84.36;99226.34;5001881;28;20038;-60
2022/01/28 00:59:48;;;;;;;37.25;22.02;;;;;;;1.44;84.75;99222.22;5001698;28;20665;-60
2022/01/28 01:02:13;;;;;;;39.33;23.55;;;;;;;1.47;84.71;99230.59;5002355;28;20040;-60
2022/01/28 01:04:40;;;;;;;36.72;22.10;;;;;;;1.27;84.94;99220.47;5002019;28;20038;-60
2022/01/28 01:07:06;;;;;;;35.75;21.80;;;;;;;0.94;84.90;99187.81;5000347;28;20026;-60
2022/01/28 01:09:32;;;;;;;38.65;22.58;;;;;;;1.39;84.62;99250.66;5003600;28;20068;-60
2022/01/28 01:11:57;;;;;;;38.05;23.40;;;;;;;1.21;85.25;99236.13;4993207;28;20033;-60
2022/01/28 01:14:22;;;;;;;39.15;23.73;;;;;;;1.09;86.12;99245.19;5001813;28;20072;-60
2022/01/28 01:19:29;;;;;;;44.95;25.17;;;;;;;0.85;86.75;99222.34;5000195;28;20045;-60
2022/01/28 01:21:58;;;;;;;40.70;22.95;;;;;;;0.68;86.05;99196.69;5001369;28;20036;-61
2022/01/28 01:24:26;;;;;;;40.55;24.23;;;;;;;0.96;87.07;99252.59;5002047;28;20033;-60
2022/01/28 01:26:51;;;;;;;38.67;24.25;;;;;;;0.69;87.70;99206.00;5004465;28;20041;-60
2022/01/28 01:29:20;;;;;;;38.45;23.60;;;;;;;1.05;88.61;99236.81;4988337;28;20424;-60
2022/01/28 01:31:46;;;;;;;37.35;23.27;;;;;;;1.02;87.72;99234.38;5000624;28;20034;-61
2022/01/28 01:34:17;;;;;;;36.67;22.55;;;;;;;1.18;87.29;99241.38;4998875;28;20037;-60
2022/01/28 01:36:43;;;;;;;34.83;22.55;;;;;;;1.23;87.41;99227.47;5005480;28;20137;-60
2022/01/28 01:39:10;;;;;;;37.22;22.40;;;;;;;1.38;86.88;99237.91;5003721;28;20500;-61
2022/01/28 01:41:42;;;;;;;35.05;21.85;;;;;;;1.67;85.79;99245.03;5004690;28;20037;-60
2022/01/28 01:44:19;;;;;;;32.70;20.95;;;;;;;1.51;85.02;99185.16;5004113;28;20036;-60
2022/01/28 01:52:00;;;;;;;36.60;20.52;;;;;;;2.02;84.13;99227.13;5005600;28;20048;-61
2022/01/28 01:52:29;;;;;;;33.90;20.55;;;;;;;1.70;82.90;99147.47;5002579;28;20088;-60
2022/01/28 01:54:54;;;;;;;34.10;20.75;;;;;;;2.08;82.45;99208.03;5004135;28;20148;-61
2022/01/28 01:57:20;;;;;;;31.92;19.83;;;;;;;2.14;82.27;99209.47;4989781;28;20041;-60
2022/01/28 01:59:47;;;;;;;34.58;20.10;;;;;;;2.07;81.92;99199.50;5003835;28;20037;-61
2022/01/28 02:02:13;;;;;;;35.25;20.77;;;;;;;1.64;83.16;99160.63;5001933;28;20041;-61
2022/01/28 02:04:38;;;;;;;36.58;21.52;;;;;;;1.92;83.50;99208.78;5003268;28;20049;-60
2022/01/28 02:07:04;;;;;;;41.65;23.98;;;;;;;1.71;83.55;99185.03;5000093;28;20041;-61
2022/01/28 02:09:30;;;;;;;39.13;23.33;;;;;;;1.65;84.25;99213.53;4978034;28;20071;-61
2022/01/28 02:11:55;;;;;;;36.72;22.67;;;;;;;1.64;84.68;99195.66;4984537;28;20043;-61
2022/01/28 02:14:21;;;;;;;35.50;21.83;;;;;;;1.53;84.54;99191.03;4998415;28;20484;-60
2022/01/28 02:16:46;;;;;;;40.42;23.80;;;;;;;1.48;84.97;99180.19;5004691;28;20072;-60
2022/01/28 02:19:12;;;;;;;36.47;22.85;;;;;;;1.41;84.72;99183.97;4999912;28;20029;-61
2022/01/28 02:21:43;;;;;;;32.55;21.65;;;;;;;1.42;84.00;99191.53;4989535;28;20041;-61
2022/01/28 02:24:10;;;;;;;34.00;21.42;;;;;;;1.20;84.35;99175.53;5003252;28;20930;-61
2022/01/28 02:26:36;;;;;;;31.02;21.30;;;;;;;1.24;83.67;99188.16;5001626;28;20040;-61
2022/01/28 02:29:11;;;;;;;37.05;21.63;;;;;;;1.21;83.35;99187.47;4996413;28;20088;-60
2022/01/28 02:31:37;;;;;;;33.50;21.05;;;;;;;1.08;82.84;99166.69;5000529;28;20069;-61
2022/01/28 02:34:04;;;;;;;33.50;21.95;;;;;;;0.96;82.85;99157.84;5002776;28;20061;-61
2022/01/28 02:36:30;;;;;;;39.55;22.92;;;;;;;0.66;82.32;99119.94;5002207;28;20432;-61
2022/01/28 02:38:58;;;;;;;39.28;23.48;;;;;;;0.81;83.42;99138.06;4983622;28;20034;-60
2022/01/28 02:41:26;;;;;;;31.08;20.40;;;;;;;0.83;82.06;99138.84;4993957;28;20048;-60
2022/01/28 02:46:29;;;;;;;38.30;22.40;;;;;;;0.74;82.93;99132.41;5002078;28;20046;-60
2022/01/28 02:49:02;;;;;;;33.90;20.75;;;;;;;0.43;83.07;99125.28;4998768;28;20030;-60
2022/01/28 02:51:28;;;;;;;36.65;20.63;;;;;;;0.61;81.88;99141.53;5003630;28;20061;-60
2022/01/28 02:53:58;;;;;;;36.55;21.88;;;;;;;0.46;82.58;99130.25;4973357;28;20061;-60
2022/01/28 02:58:55;;;;;;;36.78;22.80;;;;;;;0.18;83.36;99139.97;5001700;28;20038;-60
2022/01/28 03:01:21;;;;;;;35.53;20.83;;;;;;;0.34;84.24;99129.06;5000327;28;20041;-60
2022/01/28 03:03:50;;;;;;;35.00;21.50;;;;;;;0.44;84.60;99111.56;5008252;28;20799;-60
2022/01/28 03:06:18;;;;;;;36.50;21.87;;;;;;;0.67;83.91;99116.47;5006677;28;20125;-61
2022/01/28 03:08:50;;;;;;;36.80;22.33;;;;;;;0.73;83.47;99111.09;5003585;28;20037;-60
2022/01/28 03:16:15;;;;;;;36.50;23.65;;;;;;;0.94;82.59;99103.31;5006193;28;20049;-60
2022/01/28 03:23:50;;;;;;;39.55;23.60;;;;;;;0.45;84.03;99131.97;5000831;28;20786;-60
2022/01/28 03:26:16;;;;;;;33.80;21.13;;;;;;;0.57;83.78;99121.19;5000810;28;20081;-61
2022/01/28 03:28:42;;;;;;;35.33;20.65;;;;;;;-0.07;83.02;99047.31;4990475;28;20038;-60
2022/01/28 03:31:07;;;;;;;36.70;21.38;;;;;;;0.08;82.63;99074.75;5006355;28;20602;-61
2022/01/28 03:33:33;;;;;;;35.92;21.90;;;;;;;0.19;81.69;99066.63;4998874;28;20042;-60
2022/01/28 03:36:01;;;;;;;34.78;21.25;;;;;;;0.42;82.20;99111.66;5004502;28;20034;-60
2022/01/28 03:38:27;;;;;;;33.50;20.67;;;;;;;0.42;81.92;99105.69;5004532;28;20061;-60
2022/01/28 03:40:55;;;;;;;37.40;21.13;;;;;;;0.53;81.66;99121.38;5005364;28;20068;-60
2022/01/28 03:43:20;;;;;;;36.60;21.38;;;;;;;0.07;82.48;99119.13;5005291;28;20038;-60
2022/01/28 03:45:45;;;;;;;36.30;21.42;;;;;;;0.14;82.61;99112.84;5001912;28;20107;-60
2022/01/28 03:48:11;;;;;;;33.22;20.75;;;;;;;-0.11;82.53;99061.97;5007284;28;20045;-60
2022/01/28 03:50:36;;;;;;;35.97;22.05;;;;;;;-0.06;83.70;99144.38;5005078;28;20030;-60
2022/01/28 03:53:05;;;;;;;33.88;20.85;;;;;;;-0.13;84.89;99129.38;5005947;28;20088;-60
2022/01/28 03:55:30;;;;;;;35.65;21.98;;;;;;;-0.08;84.94;99120.63;5007456;28;20025;-61
2022/01/28 03:57:56;;;;;;;35.67;21.30;;;;;;;-0.09;84.14;99141.13;5005274;28;20034;-60
2022/01/28 04:00:26;;;;;;;35.60;21.83;;;;;;;0.07;83.79;99129.34;4999959;28;20042;-60
2022/01/28 04:02:58;;;;;;;35.90;21.48;;;;;;;0.05;83.27;99138.00;4999612;28;20044;-60
2022/01/28 04:13:24;;;;;;;38.33;22.17;;;;;;;0.03;83.54;99124.44;5005685;28;20092;-60
2022/01/28 04:16:04;;;;;;;37.47;23.02;;;;;;;-0.18;82.90;99090.41;5006087;28;20029;-60
2022/01/28 04:18:30;;;;;;;38.08;22.63;;;;;;;0.03;83.45;99134.69;5005097;28;20029;-60
2022/01/28 04:20:56;;;;;;;37.33;22.45;;;;;;;-0.10;84.22;99139.47;5002537;28;20034;-60
2022/01/28 04:23:21;;;;;;;35.53;22.67;;;;;;;-0.62;83.93;99042.81;4984430;28;20088;-60
2022/01/28 04:25:47;;;;;;;36.58;21.85;;;;;;;-0.30;85.67;99119.88;5002904;28;20022;-61
2022/01/28 04:28:12;;;;;;;34.13;21.70;;;;;;;-0.42;84.99;99123.75;5002556;28;20037;-61
2022/01/28 04:30:37;;;;;;;37.45;23.27;;;;;;;-0.81;86.54;99086.16;5000663;28;20026;-60
2022/01/28 04:33:03;;;;;;;41.85;23.02;;;;;;;-0.42;87.15;99121.19;4984977;28;20374;-60
2022/01/28 04:35:28;;;;;;;35.80;22.48;;;;;;;-0.29;87.58;99144.50;5001979;28;20030;-61
2022/01/28 04:38:19;;;;;;;35.92;20.92;;;;;;;-0.24;87.78;99119.59;5003998;28;20044;-60
2022/01/28 04:43:29;;;;;;;37.10;21.40;;;;;;;-0.31;85.87;99130.97;5006803;28;20489;-60
2022/01/28 04:46:07;;;;;;;33.83;21.50;;;;;;;-0.18;84.99;99128.72;5001978;28;20032;-61
2022/01/28 04:48:41;;;;;;;34.28;21.70;;;;;;;-0.17;84.22;99143.19;5004565;28;20372;-60
2022/01/28 05:01:43;;;;;;;36.38;21.20;;;;;;;-0.50;88.58;99154.72;5001005;28;20038;-60
2022/01/28 05:04:18;;;;;;;34.75;20.63;;;;;;;-0.43;88.47;99147.66;5005143;28;20041;-60
2022/01/28 05:27:19;;;;;;;38.20;22.55;;;;;;;0.07;88.41;99154.91;5003573;28;20443;-60
2022/01/28 05:29:45;;;;;;;33.35;20.35;;;;;;;0.19;88.86;99174.03;5003671;28;20030;-61
2022/01/28 05:32:11;;;;;;;34.35;20.42;;;;;;;0.04;88.84;99147.41;4988144;28;20137;-60
2022/01/28 05:34:37;;;;;;;33.33;19.90;;;;;;;0.13;88.87;99149.56;4995412;28;20413;-60
2022/01/28 05:37:03;;;;;;;35.75;21.55;;;;;;;-0.12;88.28;99126.75;5001004;28;20041;-60
2022/01/28 05:39:28;;;;;;;31.55;19.77;;;;;;;0.13;88.22;99152.13;5003881;28;20396;-60
2022/01/28 05:41:54;;;;;;;32.67;20.48;;;;;;;0.16;88.21;99152.00;4987544;28;20060;-60
2022/01/28 05:44:20;;;;;;;32.08;20.05;;;;;;;0.22;87.94;99158.56;4997882;28;20038;-60
2022/01/28 05:46:56;;;;;;;34.10;20.33;;;;;;;0.28;87.75;99170.28;5120312;27;20394;-60
2022/01/28 05:49:21;;;;;;;34.30;20.75;;;;;;;-0.05;87.62;99119.66;5119037;27;20454;-59
2022/01/28 05:51:47;;;;;;;31.15;20.25;;;;;;;0.21;86.96;99185.03;5115592;28;20023;-60
2022/01/28 05:54:12;;;;;;;33.38;21.58;;;;;;;0.22;86.33;99176.47;5111493;28;20094;-60
2022/01/28 05:56:38;;;;;;;35.42;21.50;;;;;;;0.07;85.79;99125.97;5120803;28;20042;-60
2022/01/28 05:59:03;;;;;;;37.03;21.85;;;;;;;-0.02;85.80;99127.19;5116176;28;20363;-60
2022/01/28 06:01:29;;;;;;;34.20;21.17;;;;;;;0.17;84.60;99173.28;5121435;28;20011;-60
2022/01/28 06:03:54;;;;;;;33.80;21.73;;;;;;;0.04;85.80;99172.13;5116458;27;20888;-60
2022/01/28 06:06:22;;;;;;;33.72;22.48;;;;;;;-0.08;86.12;99187.09;5118908;28;20030;-60
2022/01/28 06:08:49;;;;;;;35.15;21.25;;;;;;;-0.09;86.29;99205.03;5106520;28;20054;-60
2022/01/28 06:11:15;;;;;;;34.78;21.65;;;;;;;-0.14;85.46;99187.34;5115175;28;20047;-60
2022/01/28 06:13:42;;;;;;;36.15;20.25;;;;;;;-0.69;86.48;99141.88;5118997;27;20031;-60
2022/01/28 06:16:08;;;;;;;39.78;22.40;;;;;;;-0.35;85.15;99190.78;5114746;27;20798;-60
2022/01/28 06:18:33;;;;;;;34.55;21.35;;;;;;;-0.43;85.71;99181.69;5118959;27;20039;-60
2022/01/28 06:20:59;;;;;;;38.08;20.92;;;;;;;-0.28;85.45;99193.00;5122262;27;20027;-60
2022/01/28 06:23:24;;;;;;;31.95;21.05;;;;;;;-0.20;84.74;99185.88;5123939;27;20046;-60
2022/01/28 06:25:50;;;;;;;35.75;21.38;;;;;;;-0.21;84.83;99194.44;5127257;27;20958;-60
2022/01/28 06:28:15;;;;;;;34.53;20.75;;;;;;;-0.26;85.84;99193.78;5118612;27;20118;-60
2022/01/28 06:30:41;;;;;;;32.08;20.10;;;;;;;-0.50;85.63;99129.16;5130508;27;20454;-60
2022/01/28 06:33:06;;;;;;;34.40;20.92;;;;;;;-0.24;85.27;99199.69;5124570;27;20042;-60
2022/01/28 06:35:32;;;;;;;33.72;20.08;;;;;;;-0.14;83.92;99204.41;5125569;27;20081;-60
2022/01/28 06:37:57;;;;;;;34.33;20.73;;;;;;;-0.59;84.61;99148.25;5114053;27;20755;-60
2022/01/28 06:40:23;;;;;;;34.67;21.45;;;;;;;-0.61;86.26;99190.91;5116667;27;20496;-59
2022/01/28 06:42:48;;;;;;;32.10;20.20;;;;;;;-0.44;86.34;99232.84;5091649;27;20111;-60
2022/01/28 06:45:14;;;;;;;40.33;21.55;;;;;;;-0.48;86.54;99227.03;5109496;27;20067;-60
2022/01/28 06:47:39;;;;;;;36.03;22.05;;;;;;;-0.32;86.36;99229.81;5102792;27;20039;-60
2022/01/28 06:50:06;;;;;;;36.20;21.17;;;;;;;-0.27;85.98;99219.44;5105899;27;20096;-59
2022/01/28 06:52:33;;;;;;;34.13;20.83;;;;;;;-0.29;86.08;99227.16;5088781;28;20054;-59
2022/01/28 06:55:01;;;;;;;32.70;20.15;;;;;;;-0.50;87.98;99198.16;5120692;28;20150;-60
2022/01/28 06:57:27;;;;;;;34.83;19.88;;;;;;;-0.73;89.65;99205.88;5094006;28;20065;-60
2022/01/28 06:59:53;;;;;;;34.78;20.92;;;;;;;-0.31;90.83;99248.53;5081854;28;20046;-59
2022/01/28 07:02:18;;;;;;;33.95;19.85;;;;;;;-0.14;91.55;99260.66;5105222;28;20102;-60
2022/01/28 07:04:43;;;;;;;36.83;21.85;;;;;;;-0.22;92.17;99245.59;5097860;28;20670;-60
2022/01/28 07:07:09;;;;;;;36.25;20.88;;;;;;;0.01;91.22;99259.22;5099486;28;20024;-60
2022/01/28 07:09:35;;;;;;;34.58;21.17;;;;;;;0.07;91.29;99239.31;5104395;28;20413;-60
2022/01/28 07:12:01;;;;;;;35.45;22.00;;;;;;;-0.08;91.56;99265.50;5100803;28;20398;-60
2022/01/28 07:14:26;;;;;;;36.22;21.58;;;;;;;0.05;93.87;99271.78;5084446;28;20053;-59
2022/01/28 07:16:52;;;;;;;35.13;21.50;;;;;;;0.06;94.00;99263.22;5099984;28;20043;-60
2022/01/28 07:19:17;;;;;;;35.08;20.98;;;;;;;0.28;95.30;99286.19;5105219;28;20035;-60
2022/01/28 07:21:43;;;;;;;35.58;22.60;;;;;;;0.27;94.82;99284.53;5104633;28;20432;-60
2022/01/28 07:24:08;;;;;;;38.20;21.00;;;;;;;0.42;95.66;99284.78;5105562;28;20036;-60
2022/01/28 07:26:33;;;;;;;33.65;19.98;;;;;;;0.56;95.24;99303.78;5102342;28;20717;-60
2022/01/28 07:28:59;;;;;;;29.45;17.60;;;;;;;0.69;94.42;99280.22;5100526;28;20040;-60
2022/01/28 07:31:24;;;;;;;29.30;18.35;;;;;;;0.72;93.46;99288.59;5101980;28;20024;-59
2022/01/28 07:33:50;;;;;;;30.15;17.30;;;;;;;0.77;93.29;99308.91;5091969;28;20043;-60
2022/01/28 07:36:15;;;;;;;30.45;17.23;;;;;;;0.51;91.37;99246.88;5105319;28;20063;-59
2022/01/28 07:38:40;;;;;;;26.90;15.57;;;;;;;1.00;90.78;99292.53;5101430;28;20073;-60
2022/01/28 07:41:06;;;;;;;25.70;15.57;;;;;;;1.03;89.52;99286.44;5106016;28;20027;-60
2022/01/28 07:43:34;;;;;;;25.80;16.05;;;;;;;1.01;89.74;99307.00;5104675;28;20039;-59
2022/01/28 07:46:00;;;;;;;26.33;15.68;;;;;;;1.17;89.03;99304.59;5103044;28;20649;-60
2022/01/28 07:48:25;;;;;;;26.38;15.88;;;;;;;1.34;87.83;99309.78;5106078;28;20042;-59
2022/01/28 07:50:51;;;;;;;27.27;15.55;;;;;;;1.31;87.22;99304.81;5081877;28;20036;-59
2022/01/28 07:53:17;;;;;;;28.27;15.23;;;;;;;1.24;87.96;99307.69;5100459;28;20231;-60
2022/01/28 07:55:45;;;;;;;22.95;13.65;;;;;;;1.07;87.42;99278.56;5080758;27;20065;-60
2022/01/28 07:58:11;;;;;;;23.27;14.23;;;;;;;1.42;86.88;99314.56;5105840;28;20039;-60
2022/01/28 08:00:37;;;;;;;20.50;12.13;;;;;;;1.50;83.51;99294.56;5101633;28;20027;-59
2022/01/28 08:03:02;;;;;;;21.90;12.48;;;;;;;1.72;82.52;99314.88;5101470;28;20031;-60
2022/01/28 08:05:28;;;;;;;10.95;6.13;;;;;;;3.27;60.95;99272.94;5105301;28;20084;-60
2022/01/28 08:07:53;;;;;;;5.72;2.58;;;;;;;5.79;43.80;99277.13;5080304;28;20497;-59
2022/01/28 08:10:19;;;;;;;4.57;2.00;;;;;;;7.76;39.44;99327.69;5101907;28;20506;-60
2022/01/28 08:12:50;;;;;;;5.28;2.30;;;;;;;8.14;36.41;99311.16;5101593;28;20042;-60
2022/01/28 08:15:16;;;;;;;4.93;2.00;;;;;;;8.59;34.08;99306.94;5105141;28;20468;-60
2022/01/28 08:17:41;;;;;;;4.10;1.60;;;;;;;9.02;33.52;99323.63;5102191;28;20023;-60
2022/01/28 08:20:08;;;;;;;4.40;1.65;;;;;;;8.90;31.60;99291.66;5086210;28;20441;-60
2022/01/28 08:22:46;;;;;;;3.60;1.10;;;;;;;9.50;27.60;99322.53;5094851;28;20032;-60
2022/01/28 08:25:11;;;;;;;2.33;0.63;;;;;;;10.28;25.45;99328.47;5102586;28;20035;-60
2022/01/28 08:27:37;;;;;;;7.13;0.65;;;;;;;10.46;23.91;99334.78;5085872;28;20339;-59
2022/01/28 08:30:03;;;;;;;1.55;0.20;;;;;;;11.03;22.90;99353.47;5082982;28;20724;-59
2022/01/28 08:32:28;;;;;;;1.52;0.30;;;;;;;11.21;20.57;99329.41;5099676;28;20147;-58
2022/01/28 08:34:54;;;;;;;0.13;0.13;;;;;;;11.01;21.08;99341.53;5097887;28;20031;-59
2022/01/28 08:37:19;;;;;;;3.10;0.40;;;;;;;11.10;21.54;99338.16;5095939;28;20078;-60
2022/01/28 08:39:45;;;;;;;0.38;0.20;;;;;;;10.80;25.13;99364.97;5093114;28;20067;-60
2022/01/28 08:42:10;;;;;;;4.57;0.47;;;;;;;10.84;24.01;99369.81;5094030;28;20035;-59
2022/01/28 08:44:35;;;;;;;0.30;0.20;;;;;;;10.88;23.61;99373.78;5103365;28;20023;-60
2022/01/28 08:47:01;;;;;;;1.92;0.22;;;;;;;10.93;22.19;99371.63;5102466;28;20148;-59
2022/01/28 08:49:26;;;;;;;1.73;0.32;;;;;;;10.98;20.25;99383.44;5102225;28;20034;-59
2022/01/28 08:51:51;;;;;;;1.95;0.45;;;;;;;10.87;20.74;99385.13;5101641;28;20442;-59
2022/01/28 08:54:17;;;;;;;0.90;0.30;;;;;;;10.87;20.23;99390.34;5086203;28;20028;-59
2022/01/28 08:56:43;;;;;;;0.32;0.10;;;;;;;11.12;19.71;99409.13;5094431;27;20040;-60
2022/01/28 08:59:09;;;;;;;0.88;0.30;;;;;;;11.25;17.94;99424.53;5098784;28;20538;-59
2022/01/28 09:01:34;;;;;;;1.27;0.20;;;;;;;11.19;17.44;99441.50;5089305;27;20028;-59
2022/01/28 09:03:59;;;;;;;0.73;0.20;;;;;;;11.19;20.44;99444.09;5100246;28;20031;-60
2022/01/28 09:06:25;;;;;;;1.15;0.32;;;;;;;11.00;20.26;99441.38;5101671;28;20425;-59
2022/01/28 09:08:54;;;;;;;1.20;0.40;;;;;;;10.99;20.03;99444.91;5091222;28;20035;-60
2022/01/28 09:13:47;;;;;;;0.40;0.20;;;;;;;11.34;17.22;99484.47;5092954;28;20424;-59
2022/01/28 09:16:13;;;;;;;0.63;0.20;;;;;;;11.20;17.64;99481.38;5091443;28;20115;-59
2022/01/28 09:18:39;;;;;;;5.68;0.30;;;;;;;10.95;19.04;99455.59;5093064;28;21119;-59
2022/01/28 09:21:05;;;;;;;1.63;0.20;;;;;;;10.87;18.99;99478.81;5068384;28;20378;-59
2022/01/28 09:23:31;;;;;;;0.45;0.10;;;;;;;11.19;18.62;99493.56;5101526;28;20106;-60
2022/01/28 09:25:56;;;;;;;0.28;0.10;;;;;;;11.08;19.87;99501.41;5104443;28;20032;-59
2022/01/28 09:28:22;;;;;;;0.52;0.10;;;;;;;10.94;19.24;99512.97;5098177;28;20142;-59
2022/01/28 09:30:47;;;;;;;0.50;0.20;;;;;;;11.05;18.27;99489.47;5100566;28;20024;-59
2022/01/28 09:33:13;;;;;;;1.08;0.30;;;;;;;11.33;14.89;99482.84;5070046;28;20047;-59
2022/01/28 09:35:41;;;;;;;0.70;0.20;;;;;;;11.42;17.25;99520.28;5099499;28;20078;-59
2022/01/28 09:38:06;;;;;;;1.33;0.15;;;;;;;11.47;16.37;99512.09;5104324;28;20031;-58
2022/01/28 09:40:32;;;;;;;0.25;0.10;;;;;;;11.16;18.90;99506.81;5097060;28;20039;-59
2022/01/28 09:42:59;;;;;;;1.27;0.30;;;;;;;11.01;17.87;99511.50;5102310;28;21002;-59
2022/01/28 09:45:25;;;;;;;0.85;0.30;;;;;;;11.27;16.18;99527.59;5103571;28;20513;-59
2022/01/28 09:47:56;;;;;;;3.30;0.30;;;;;;;11.38;14.81;99531.09;5100147;28;20033;-60
2022/01/28 09:50:24;;;;;;;3.30;0.30;;;;;;;11.10;16.75;99502.94;5090192;28;20418;-59
2022/01/28 09:52:50;;;;;;;0.88;0.17;;;;;;;11.14;19.03;99530.38;5090591;28;20539;-59
2022/01/28 09:55:16;;;;;;;2.33;0.20;;;;;;;11.01;20.79;99545.34;5098394;28;20027;-59
2022/01/28 09:57:43;;;;;;;0.57;0.20;;;;;;;11.05;18.74;99580.56;5088754;28;20373;-59
2022/01/28 10:00:10;;;;;;;0.75;0.22;;;;;;;10.91;17.15;99519.22;5100942;28;20031;-59
2022/01/28 10:03:01;;;;;;;0.57;0.20;;;;;;;10.94;19.53;99547.59;5087069;28;21096;-59
2022/01/28 10:05:31;;;;;;;1.27;0.38;;;;;;;11.42;15.89;99561.94;5097381;28;20035;-59
2022/01/28 10:08:00;;;;;;;;;;;;;;;11.38;16.76;99547.53;5104516;28;20023;-59
2022/01/28 10:10:26;;;;;;;0.65;0.25;;;;;;;11.64;17.29;99575.78;5103558;28;19919;-59
2022/01/28 10:13:09;;;;;;;0.57;0.20;;;;;;;11.60;15.60;99585.63;5101927;28;20027;-59
2022/01/28 10:15:35;;;;;;;1.38;0.50;;;;;;;11.58;15.42;99571.09;5103279;28;20478;-59
2022/01/28 10:18:00;;;;;;;0.20;0.17;;;;;;;11.58;18.39;99564.09;5094747;28;20032;-59
2022/01/28 10:20:26;;;;;;;0.30;0.13;;;;;;;11.77;16.04;99573.81;5101286;28;20027;-59
2022/01/28 10:22:55;;;;;;;1.02;0.22;;;;;;;11.79;17.04;99584.09;5086712;28;20028;-59
2022/01/28 10:25:33;;;;;;;0.82;0.17;;;;;;;11.63;15.99;99566.34;5094540;28;20059;-59
2022/01/28 10:28:12;;;;;;;1.80;0.28;;;;;;;11.76;15.91;99573.94;5086176;28;20612;-59
2022/01/28 10:30:41;;;;;;;0.20;0.20;;;;;;;11.65;16.43;99551.41;5098547;28;20059;-59
2022/01/28 10:33:25;;;;;;;1.80;0.10;;;;;;;11.80;15.58;99567.53;5105673;28;20411;-59
2022/01/28 10:36:02;;;;;;;1.42;0.43;;;;;;;11.61;15.91;99544.78;5089551;28;20160;-59
2022/01/28 10:38:36;;;;;;;0.77;0.30;;;;;;;11.77;19.52;99567.78;5107811;28;20490;-59
2022/01/28 10:41:13;;;;;;;1.45;0.30;;;;;;;11.85;15.90;99601.84;5102374;28;20410;-59
2022/01/28 10:43:58;;;;;;;1.27;0.20;;;;;;;11.89;15.89;99575.38;5105579;28;20027;-59
2022/01/28 10:46:30;;;;;;;1.20;0.30;;;;;;;11.84;15.65;99571.50;5107304;28;20032;-60
2022/01/28 10:48:57;;;;;;;0.47;0.20;;;;;;;11.90;17.27;99579.69;5095349;28;20128;-60
2022/01/28 10:51:43;;;;;;;1.40;0.25;;;;;;;12.07;13.45;99578.25;5105261;28;20031;-59
2022/01/28 10:54:12;;;;;;;0.65;0.20;;;;;;;11.85;15.47;99540.13;5104880;28;20028;-60
2022/01/28 10:56:53;;;;;;;1.23;0.30;;;;;;;12.06;16.07;99560.94;5091515;28;20062;-60
2022/01/28 10:59:21;;;;;;;0.73;0.20;;;;;;;12.05;15.10;99558.50;5095300;28;20055;-60
2022/01/28 11:01:47;;;;;;;0.68;0.30;;;;;;;11.97;16.92;99566.94;5093571;28;20040;-60
2022/01/28 11:04:16;;;;;;;3.80;0.30;;;;;;;11.80;14.68;99531.84;5101990;28;20034;-60
2022/01/28 11:06:42;;;;;;;0.98;0.30;;;;;;;12.03;16.54;99557.75;5082474;27;20023;-60
2022/01/28 11:09:08;;;;;;;0.73;0.20;;;;;;;12.07;16.96;99591.28;5098274;28;20027;-59
2022/01/28 11:11:35;;;;;;;3.00;0.30;;;;;;;12.13;12.73;99547.41;5097818;28;20122;-60
2022/01/28 11:14:01;;;;;;;1.08;0.32;;;;;;;12.02;16.75;99540.50;5102917;27;20180;-60
2022/01/28 11:16:27;;;;;;;1.42;0.30;;;;;;;12.17;14.36;99574.84;5105372;27;20024;-60
2022/01/28 11:18:54;;;;;;;2.72;0.20;;;;;;;12.35;13.55;99528.13;5080545;28;20076;-60
2022/01/28 11:21:30;;;;;;;1.65;0.30;;;;;;;12.19;15.16;99516.38;5088895;28;20028;-60
2022/01/28 11:24:34;;;;;;;0.52;0.28;;;;;;;12.26;16.02;99538.38;5089007;28;20032;-59
2022/01/28 11:27:25;;;;;;;0.22;0.15;;;;;;;12.04;17.20;99535.97;5099761;28;20071;-60
2022/01/28 11:30:28;;;;;;;1.48;0.30;;;;;;;12.25;13.25;99538.53;5092851;28;20482;-60
2022/01/28 11:33:01;;;;;;;0.20;0.10;;;;;;;12.02;16.65;99528.28;5084397;28;20112;-60
2022/01/28 11:35:32;;;;;;;0.68;0.20;;;;;;;12.05;17.34;99555.88;5081849;28;20952;-60
2022/01/28 11:38:03;;;;;;;0.82;0.30;;;;;;;11.83;16.08;99499.53;5085892;28;20338;-60
2022/01/28 11:40:42;;;;;;;0.30;0.10;;;;;;;11.93;18.08;99521.25;5079321;28;20027;-60
2022/01/28 11:43:24;;;;;;;0.52;0.20;;;;;;;12.07;15.60;99526.09;5099531;28;20127;-60
2022/01/28 11:46:20;;;;;;;0.30;0.10;;;;;;;12.29;15.04;99524.25;5094713;28;20424;-60
2022/01/28 11:48:52;;;;;;;0.63;0.20;;;;;;;12.43;14.18;99510.84;5094325;28;20312;-60
2022/01/28 11:51:32;;;;;;;1.73;0.30;;;;;;;12.40;14.29;99492.03;5094357;28;20032;-60
2022/01/28 11:54:10;;;;;;;2.28;0.45;;;;;;;12.24;14.69;99495.16;5101069;28;20488;-60
2022/01/28 11:56:58;;;;;;;2.20;0.30;;;;;;;12.36;16.17;99459.34;5076306;28;20019;-60
2022/01/28 11:59:30;;;;;;;1.20;0.30;;;;;;;12.27;17.07;99467.03;5091601;28;20039;-60
2022/01/28 12:01:55;;;;;;;1.23;0.30;;;;;;;12.14;17.73;99496.88;5088581;28;20035;-60
2022/01/28 12:04:27;;;;;;;0.40;0.10;;;;;;;12.20;15.68;99510.22;5091063;28;20035;-60
2022/01/28 12:07:01;;;;;;;1.67;0.20;;;;;;;11.95;15.01;99453.34;5086848;28;20028;-60
2022/01/28 12:09:28;;;;;;;0.30;0.20;;;;;;;12.10;18.74;99486.75;5078881;27;20044;-60
2022/01/28 12:11:53;;;;;;;0.52;0.20;;;;;;;12.02;15.90;99499.59;5092821;28;20489;-60
2022/01/28 12:15:10;;;;;;;0.55;0.20;;;;;;;12.17;16.69;99499.25;5057192;28;20028;-60
2022/01/28 12:17:37;;;;;;;0.10;0.10;;;;;;;12.20;14.26;99467.69;5093202;28;20028;-60
2022/01/28 12:20:15;;;;;;;0.98;0.35;;;;;;;12.36;14.27;99462.78;5094634;28;20031;-60
2022/01/28 12:22:59;;;;;;;0.32;0.10;;;;;;;12.25;16.07;99436.84;5098834;28;20035;-60
2022/01/28 12:25:37;;;;;;;0.15;0.13;;;;;;;12.31;13.29;99444.91;5097984;28;20034;-60
2022/01/28 12:28:23;;;;;;;3.58;0.30;;;;;;;12.42;14.60;99475.28;5091339;28;20031;-60
2022/01/28 12:31:25;;;;;;;1.30;0.20;;;;;;;12.63;13.56;99451.69;5099013;28;20039;-60
2022/01/28 12:33:53;;;;;;;0.68;0.30;;;;;;;12.57;15.48;99436.56;5020351;28;20112;-60
2022/01/28 12:36:22;;;;;;;1.17;0.17;;;;;;;12.51;13.40;99450.16;5070525;28;20126;-61
2022/01/28 12:39:11;;;;;;;0.40;0.17;;;;;;;12.50;14.89;99444.13;5072751;28;20027;-61
2022/01/28 12:41:43;;;;;;;1.17;0.20;;;;;;;12.45;13.98;99448.94;5076506;28;20080;-61
2022/01/28 12:44:09;;;;;;;2.55;0.30;;;;;;;12.36;13.63;99409.78;5098111;28;20040;-61
2022/01/28 12:46:38;;;;;;;0.20;0.15;;;;;;;12.55;14.23;99429.84;5074155;28;20490;-61
2022/01/28 12:49:03;;;;;;;1.15;0.30;;;;;;;12.42;13.38;99384.00;5082070;28;20024;-61
2022/01/28 12:51:29;;;;;;;1.30;0.20;;;;;;;12.60;15.41;99438.91;5088468;27;20375;-61
2022/01/28 12:53:54;;;;;;;0.63;0.10;;;;;;;12.47;15.85;99427.94;5085035;28;20035;-61
2022/01/28 12:56:35;;;;;;;0.38;0.20;;;;;;;12.67;12.49;99420.94;5091536;28;20055;-61
2022/01/28 12:59:02;;;;;;;0.25;0.10;;;;;;;12.74;14.17;99422.03;5086994;28;20051;-61
2022/01/28 13:01:28;;;;;;;0.63;0.10;;;;;;;12.58;17.93;99408.72;5095277;28;20106;-61
2022/01/28 13:04:07;;;;;;;0.47;0.20;;;;;;;12.53;15.32;99424.75;5089121;27;20045;-61